Time;durP1;ratioP1;P1;durP2;ratioP2;P2;SDS_P1;SDS_P2;PMS_P1;PMS_P2;Temp;Humidity;BMP_temperature;BMP_pressure;BME280_temperature;BME280_humidity;BME280_pressure;Samples;Min_cycle;Max_cycle;Signal;HPM_P1;HPM_P2
2023/11/27 00:01:43;;;;;;;6.90;3.80;;;;;;;-1.62;76.04;100297.26;106217;1289;72573;-55
2023/11/27 00:04:29;;;;;;;;;;;;;;;-1.63;77.37;100297.21;106242;1290;68603;-56
2023/11/27 00:07:15;;;;;;;4.40;3.60;;;;;;;-1.65;76.46;100298.85;106197;1295;73044;-54
2023/11/27 00:10:01;;;;;;;6.40;4.00;;;;;;;-1.66;75.89;100295.61;106190;1294;59229;-56
2023/11/27 00:12:48;;;;;;;7.10;3.60;;;;;;;-1.64;77.40;100292.80;106143;1290;60005;-56
2023/11/27 00:15:34;;;;;;;5.50;3.60;;;;;;;-1.64;76.51;100292.30;106167;1289;74574;-56
2023/11/27 00:18:20;;;;;;;7.40;3.20;;;;;;;-1.64;77.00;100296.88;106178;1294;68550;-56
2023/11/27 00:21:06;;;;;;;6.70;3.40;;;;;;;-1.68;80.14;100299.63;106219;1290;72441;-55
2023/11/27 00:23:52;;;;;;;;;;;;;;;-1.71;77.64;100300.89;106215;1292;59523;-56
2023/11/27 00:26:38;;;;;;;4.90;3.30;;;;;;;-1.75;77.69;100303.30;106164;1289;58906;-57
2023/11/27 00:29:24;;;;;;;4.70;3.50;;;;;;;-1.80;76.74;100305.20;106204;1289;73382;-56
2023/11/27 00:32:10;;;;;;;6.10;3.20;;;;;;;-1.85;76.38;100304.04;106240;1294;67647;-56
2023/11/27 00:34:56;;;;;;;5.10;2.90;;;;;;;-1.88;76.13;100298.88;106149;1289;72089;-57
2023/11/27 00:37:42;;;;;;;4.40;3.20;;;;;;;-1.91;76.78;100302.85;106203;1289;58454;-57
2023/11/27 00:40:28;;;;;;;8.80;3.30;;;;;;;-1.95;76.84;100300.53;106223;1289;58759;-56
2023/11/27 00:43:14;;;;;;;6.60;3.20;;;;;;;-1.98;77.72;100300.10;106187;1292;72381;-56
2023/11/27 00:46:00;;;;;;;5.60;3.40;;;;;;;-2.03;77.23;100302.33;106215;1289;67370;-56
2023/11/27 00:48:46;;;;;;;4.40;3.00;;;;;;;-2.06;76.26;100303.58;106246;1289;71929;-57
2023/11/27 00:51:32;;;;;;;5.90;3.90;;;;;;;-2.09;76.93;100303.36;106190;1289;59008;-57
2023/11/27 00:54:18;;;;;;;;;;;;;;;-2.12;79.02;100303.77;106249;1292;59191;-56
2023/11/27 00:57:04;;;;;;;4.40;2.80;;;;;;;-2.16;77.05;100299.61;106131;1289;74505;-54
2023/11/27 00:59:50;;;;;;;8.80;3.10;;;;;;;-2.19;76.44;100298.50;106134;1290;68197;-56
2023/11/27 01:02:37;;;;;;;;;;;;;;;-2.23;77.12;100298.20;106179;1291;72204;-56
2023/11/27 01:05:23;;;;;;;7.40;3.50;;;;;;;-2.23;76.51;100295.67;106212;1288;59419;-56
2023/11/27 01:08:12;;;;;;;6.20;3.60;;;;;;;-2.25;77.96;100291.23;106250;1289;60278;-55
2023/11/27 01:10:58;;;;;;;6.40;3.10;;;;;;;-2.23;76.57;100296.69;106089;1289;74550;-56
2023/11/27 01:13:44;;;;;;;5.90;3.60;;;;;;;-2.20;76.40;100290.70;106217;1289;68027;-56
2023/11/27 01:16:30;;;;;;;;;;;;;;;-2.18;76.20;100289.91;106210;1289;70209;-56
2023/11/27 01:19:17;;;;;;;4.40;3.30;;;;;;;-2.18;76.66;100287.55;106233;1289;59714;-57
2023/11/27 01:22:04;;;;;;;4.60;3.20;;;;;;;-2.17;76.67;100283.86;106173;1289;59236;-56
2023/11/27 01:24:50;;;;;;;5.00;2.90;;;;;;;-2.18;78.13;100275.56;106217;1289;73112;-56
2023/11/27 01:27:38;;;;;;;10.00;3.20;;;;;;;-2.21;77.55;100272.77;106218;1289;67375;-56
2023/11/27 01:30:24;;;;;;;5.70;3.70;;;;;;;-2.23;79.10;100274.73;106224;1289;71155;-56
2023/11/27 01:33:12;;;;;;;4.00;2.70;;;;;;;-2.26;77.63;100271.95;106215;1289;59639;-56
2023/11/27 01:35:58;;;;;;;5.50;4.00;;;;;;;-2.28;76.80;100271.02;106207;1289;59170;-56
2023/11/27 01:38:44;;;;;;;4.70;3.20;;;;;;;-2.30;76.52;100271.98;106210;1289;73357;-57
2023/11/27 01:41:30;;;;;;;5.00;3.30;;;;;;;-2.34;76.51;100272.56;106228;1288;67349;-57
2023/11/27 01:44:16;;;;;;;4.30;3.30;;;;;;;-2.37;77.48;100271.61;106192;1289;72518;-57
2023/11/27 01:47:03;;;;;;;7.20;3.00;;;;;;;-2.40;76.71;100271.02;106215;1289;59027;-57
2023/11/27 01:49:49;;;;;;;4.60;3.40;;;;;;;-2.42;78.10;100267.06;106213;1290;58970;-57
2023/11/27 01:52:38;;;;;;;4.30;3.20;;;;;;;-2.44;77.46;100269.20;106211;1289;73154;-56
2023/11/27 01:55:26;;;;;;;5.70;3.50;;;;;;;-2.44;78.17;100266.33;106216;1289;68396;-57
2023/11/27 01:58:12;;;;;;;5.40;3.70;;;;;;;-2.46;78.15;100269.32;106220;1289;72401;-57
2023/11/27 02:00:58;;;;;;;;;;;;;;;-2.48;77.07;100267.89;106228;1289;59482;-58
2023/11/27 02:03:44;;;;;;;4.30;3.00;;;;;;;-2.48;77.26;100268.57;106225;1289;59723;-57
2023/11/27 02:06:30;;;;;;;;;;;;;;;-2.49;79.08;100269.04;106197;1288;74105;-57
2023/11/27 02:09:17;;;;;;;8.60;3.80;;;;;;;-2.50;77.82;100266.15;106090;1289;67430;-57
2023/11/27 02:12:03;;;;;;;6.90;4.10;;;;;;;-2.51;76.96;100264.44;106224;1289;72188;-57
2023/11/27 02:14:50;;;;;;;8.70;4.40;;;;;;;-2.55;76.73;100262.63;106166;1289;59166;-57
2023/11/27 02:17:36;;;;;;;6.60;4.00;;;;;;;-2.58;76.61;100261.50;106213;1289;60095;-56
2023/11/27 02:20:22;;;;;;;;;;;;;;;-2.60;76.41;100265.68;106224;1289;74540;-56
2023/11/27 02:23:16;;;;;;;9.90;3.80;;;;;;;-2.64;76.48;100264.37;106230;1288;66573;-57
2023/11/27 02:26:06;;;;;;;7.10;4.60;;;;;;;-2.70;76.40;100262.04;106208;1291;62487;-57
2023/11/27 02:28:52;;;;;;;7.10;3.60;;;;;;;-2.76;76.56;100258.30;106122;1288;59414;-55
2023/11/27 02:31:38;;;;;;;5.30;3.70;;;;;;;-2.80;76.82;100253.42;106237;1289;59418;-57
2023/11/27 02:34:24;;;;;;;;;;;;;;;-2.83;76.43;100247.75;102351;1288;5003728;-55
2023/11/27 02:37:10;;;;;;;5.60;3.60;;;;;;;-2.85;77.18;100248.38;106209;1288;70298;-57
2023/11/27 02:39:56;;;;;;;5.80;3.90;;;;;;;-2.89;76.58;100249.41;106217;1289;59045;-56
2023/11/27 02:42:42;;;;;;;;;;;;;;;-2.95;76.42;100242.48;106232;1289;60123;-56
2023/11/27 02:45:28;;;;;;;4.70;3.60;;;;;;;-3.00;76.60;100248.24;106217;1288;74545;-57
2023/11/27 02:48:14;;;;;;;7.80;4.20;;;;;;;-3.03;76.43;100245.95;106259;1291;67429;-56
2023/11/27 02:51:00;;;;;;;5.40;3.30;;;;;;;-3.08;76.32;100239.20;106195;1288;72391;-57
2023/11/27 02:53:46;;;;;;;;;;;;;;;-3.20;76.52;100240.85;106240;1289;58985;-57
2023/11/27 02:56:33;;;;;;;8.40;4.00;;;;;;;-3.28;76.43;100241.77;106212;1288;59768;-57
2023/11/27 02:59:19;;;;;;;6.30;3.70;;;;;;;-3.33;76.40;100245.48;106250;1288;74584;-56
2023/11/27 03:02:05;;;;;;;;;;;;;;;-3.35;76.15;100247.27;106253;1288;68602;-57
2023/11/27 03:04:51;;;;;;;6.20;3.50;;;;;;;-3.39;76.41;100245.60;106181;1289;72574;-56
2023/11/27 03:07:37;;;;;;;;;;;;;;;-3.44;76.19;100243.59;106212;1289;59239;-56
2023/11/27 03:10:23;;;;;;;5.20;3.60;;;;;;;-3.52;76.48;100242.62;106228;1288;59983;-56
2023/11/27 03:13:09;;;;;;;;;;;;;;;-3.56;76.38;100245.52;106252;1288;74485;-57
2023/11/27 03:15:55;;;;;;;6.70;3.80;;;;;;;-3.57;76.32;100244.80;106222;1289;67422;-56
2023/11/27 03:18:41;;;;;;;;;;;;;;;-3.58;77.20;100243.94;106212;1289;71164;-56
2023/11/27 03:21:27;;;;;;;5.30;2.80;;;;;;;-3.60;76.96;100238.66;106163;1291;59216;-57
2023/11/27 03:24:14;;;;;;;;;;;;;;;-3.61;76.65;100238.77;106261;1288;59136;-56
2023/11/27 03:27:00;;;;;;;4.60;3.20;;;;;;;-3.61;76.67;100232.36;106248;1289;74535;-57
2023/11/27 03:29:46;;;;;;;;;;;;;;;-3.59;76.46;100232.46;106272;1288;67156;-57
2023/11/27 03:32:32;;;;;;;7.80;4.10;;;;;;;-3.56;76.62;100237.27;106207;1288;72464;-56
2023/11/27 03:35:18;;;;;;;;;;;;;;;-3.54;76.50;100234.63;106208;1288;59384;-56
2023/11/27 03:38:05;;;;;;;7.70;4.10;;;;;;;-3.51;76.79;100234.23;106245;1288;58993;-55
2023/11/27 03:40:51;;;;;;;7.60;4.60;;;;;;;-3.46;76.93;100232.89;106208;1289;74362;-57
2023/11/27 03:43:37;;;;;;;;;;;;;;;-3.40;78.68;100237.82;106234;1288;67008;-57
2023/11/27 03:46:23;;;;;;;6.60;5.00;;;;;;;-3.29;78.41;100229.09;106228;1288;71680;-56
2023/11/27 03:49:09;;;;;;;;;;;;;;;-3.20;77.78;100230.73;106154;1288;59377;-56
2023/11/27 03:51:55;;;;;;;7.90;5.40;;;;;;;-3.12;77.56;100229.98;106222;1288;59280;-57
2023/11/27 03:54:41;;;;;;;;;;;;;;;-3.04;77.17;100225.84;106223;1289;74741;-57
2023/11/27 03:57:27;;;;;;;9.10;6.50;;;;;;;-2.97;78.58;100222.85;106223;1288;68531;-57
2023/11/27 04:00:13;;;;;;;;;;;;;;;-2.92;78.57;100227.41;106218;1289;71430;-57
2023/11/27 04:02:59;;;;;;;8.60;6.70;;;;;;;-2.84;83.17;100224.30;106186;1289;59454;-57
2023/11/27 04:05:47;;;;;;;;;;;;;;;-2.80;79.05;100224.41;106247;1289;60687;-57
2023/11/27 04:08:37;;;;;;;8.90;6.50;;;;;;;-2.76;78.73;100218.65;106207;1289;73420;-57
2023/11/27 04:11:27;;;;;;;9.80;6.60;;;;;;;-2.74;78.85;100211.96;106220;1288;68616;-57
2023/11/27 04:14:13;;;;;;;11.00;7.10;;;;;;;-2.75;79.19;100211.45;106229;1289;72051;-57
2023/11/27 04:16:59;;;;;;;;;;;;;;;-2.76;80.92;100206.84;106218;1289;59721;-56
2023/11/27 04:19:45;;;;;;;11.20;7.30;;;;;;;-2.78;80.45;100209.98;106184;1288;59590;-57
2023/11/27 04:22:31;;;;;;;;;;;;;;;-2.78;78.46;100209.48;106263;1289;73444;-57
2023/11/27 04:25:17;;;;;;;9.50;6.60;;;;;;;-2.78;78.43;100215.56;106168;1289;67504;-57
2023/11/27 04:28:03;;;;;;;;;;;;;;;-2.75;78.86;100220.38;106222;1289;72386;-57
2023/11/27 04:30:49;;;;;;;11.00;7.30;;;;;;;-2.72;82.69;100214.55;106216;1289;59341;-56
2023/11/27 04:33:35;;;;;;;9.90;7.70;;;;;;;-2.70;79.47;100212.08;106217;1289;59052;-57
2023/11/27 04:36:22;;;;;;;13.40;6.90;;;;;;;-2.68;79.83;100209.29;106229;1289;73207;-57
2023/11/27 04:39:10;;;;;;;10.90;6.80;;;;;;;-2.65;81.69;100211.38;106223;1289;68206;-57
2023/11/27 04:41:56;;;;;;;7.90;6.10;;;;;;;-2.68;80.64;100209.30;106200;1289;71236;-57
2023/11/27 04:44:43;;;;;;;11.90;8.20;;;;;;;-2.68;80.59;100205.91;106132;1289;59665;-57
2023/11/27 04:47:28;;;;;;;;;;;;;;;-2.67;80.21;100207.77;106244;1289;59685;-56
2023/11/27 04:50:15;;;;;;;9.80;6.90;;;;;;;-2.70;81.34;100209.04;106249;1289;73385;-57
2023/11/27 04:53:01;;;;;;;13.80;8.10;;;;;;;-2.72;79.20;100209.66;106195;1289;67494;-57
2023/11/27 04:55:47;;;;;;;;;;;;;;;-2.73;80.05;100206.25;106204;1288;71272;-57
2023/11/27 04:58:33;;;;;;;11.70;8.00;;;;;;;-2.75;79.59;100207.73;106205;1290;59604;-56
2023/11/27 05:01:19;;;;;;;;;;;;;;;-2.77;79.21;100207.48;105710;1289;204495;-57
2023/11/27 05:04:05;;;;;;;10.40;8.10;;;;;;;-2.76;80.79;100207.50;106186;1289;73851;-57
2023/11/27 05:06:51;;;;;;;10.10;7.40;;;;;;;-2.77;78.82;100211.02;106222;1289;68201;-57
2023/11/27 05:09:40;;;;;;;;;;;;;;;-2.76;78.89;100210.05;105979;1289;306491;-57
2023/11/27 05:12:26;;;;;;;9.80;6.00;;;;;;;-2.77;80.35;100209.48;106169;1289;58946;-57
2023/11/27 05:15:13;;;;;;;;;;;;;;;-2.81;79.32;100208.52;106190;1289;60544;-56
2023/11/27 05:17:59;;;;;;;10.20;7.60;;;;;;;-2.82;79.52;100208.66;106162;1289;74426;-56
2023/11/27 05:20:45;;;;;;;;;;;;;;;-2.81;81.04;100206.85;106201;1289;68166;-56
2023/11/27 05:23:32;;;;;;;12.10;6.70;;;;;;;-2.82;79.66;100206.48;106232;1288;72496;-56
2023/11/27 05:26:18;;;;;;;13.30;7.10;;;;;;;-2.79;79.56;100208.61;106204;1288;58997;-57
2023/11/27 05:29:04;;;;;;;;;;;;;;;-2.78;78.92;100209.48;106195;1289;59277;-56
2023/11/27 05:31:51;;;;;;;9.60;6.10;;;;;;;-2.81;80.38;100209.39;106200;1289;73217;-56
2023/11/27 05:34:37;;;;;;;10.50;6.90;;;;;;;-2.85;80.40;100212.27;106225;1289;68420;-56
2023/11/27 05:37:23;;;;;;;10.10;5.70;;;;;;;-2.88;79.34;100215.39;106172;1289;72145;-57
2023/11/27 05:40:10;;;;;;;9.70;5.90;;;;;;;-2.90;80.94;100217.85;106200;1289;59448;-56
2023/11/27 05:43:04;;;;;;;9.10;6.30;;;;;;;-2.91;79.38;100227.61;106231;1289;59591;-56
2023/11/27 05:45:50;;;;;;;10.20;5.90;;;;;;;-2.85;79.25;100229.14;106195;1289;73343;-56
2023/11/27 05:48:37;;;;;;;9.70;6.10;;;;;;;-2.84;79.22;100229.36;106211;1289;68437;-56
2023/11/27 05:51:23;;;;;;;7.80;6.10;;;;;;;-2.80;78.80;100232.50;106186;1288;71285;-57
2023/11/27 05:54:09;;;;;;;;;;;;;;;-2.81;82.23;100220.52;106213;1288;59063;-55
2023/11/27 05:56:55;;;;;;;12.50;6.60;;;;;;;-2.84;80.18;100222.93;106226;1288;59101;-56
2023/11/27 05:59:41;;;;;;;;;;;;;;;-2.81;79.18;100228.59;106248;1289;72871;-57
2023/11/27 06:02:27;;;;;;;6.80;4.60;;;;;;;-2.76;79.48;100231.64;106192;1288;68356;-58
2023/11/27 06:05:15;;;;;;;8.80;6.10;;;;;;;-2.77;82.32;100225.50;106256;1288;72511;-57
2023/11/27 06:08:01;;;;;;;10.90;6.90;;;;;;;-2.85;80.54;100223.06;106194;1289;59244;-57
2023/11/27 06:10:47;;;;;;;;;;;;;;;-2.89;80.79;100222.78;106270;1289;58927;-57
2023/11/27 06:13:33;;;;;;;14.80;8.00;;;;;;;-2.90;79.79;100221.73;106241;1288;74433;-57
2023/11/27 06:16:25;;;;;;;;;;;;;;;-2.87;79.39;100224.70;106229;1289;67426;-57
2023/11/27 06:19:11;;;;;;;11.80;7.40;;;;;;;-2.83;79.54;100225.66;106221;1288;72358;-57
2023/11/27 06:21:58;;;;;;;16.10;7.60;;;;;;;-2.84;79.64;100224.30;106189;1289;59693;-58
2023/11/27 06:24:44;;;;;;;11.70;6.80;;;;;;;-2.81;79.93;100220.49;106231;1289;59588;-57
2023/11/27 06:27:30;;;;;;;;;;;;;;;-2.85;82.12;100215.48;106254;1288;73207;-57
2023/11/27 06:30:16;;;;;;;11.00;7.30;;;;;;;-2.91;82.59;100220.00;106213;1289;67465;-57
2023/11/27 06:33:02;;;;;;;;;;;;;;;-2.95;80.33;100219.53;106203;1289;71367;-57
2023/11/27 06:35:51;;;;;;;11.00;6.20;;;;;;;-2.92;81.15;100217.29;106230;1288;58955;-58
2023/11/27 06:38:37;;;;;;;9.70;6.50;;;;;;;-2.96;81.17;100215.65;106240;1288;60103;-57
2023/11/27 06:41:25;;;;;;;7.80;5.40;;;;;;;-2.96;80.23;100219.85;106241;1289;74815;-57
2023/11/27 06:44:13;;;;;;;8.00;5.70;;;;;;;-2.95;79.38;100219.89;106261;1288;67172;-57
2023/11/27 06:46:59;;;;;;;7.90;5.40;;;;;;;-2.93;80.74;100221.46;106201;1289;72525;-57
2023/11/27 06:49:45;;;;;;;8.60;5.60;;;;;;;-2.93;80.51;100219.11;106201;1289;58922;-57
2023/11/27 06:52:31;;;;;;;;;;;;;;;-2.93;81.48;100219.11;106171;1288;59846;-57
2023/11/27 06:55:18;;;;;;;8.30;5.90;;;;;;;-2.92;80.23;100216.62;106224;1289;72987;-58
2023/11/27 06:58:04;;;;;;;6.90;5.30;;;;;;;-2.87;80.24;100213.21;106251;1288;67362;-56
2023/11/27 07:00:50;;;;;;;;;;;;;;;-2.82;79.65;100213.89;106214;1288;70677;-57
2023/11/27 07:03:36;;;;;;;7.00;5.00;;;;;;;-2.78;83.00;100211.48;106235;1288;59237;-58
2023/11/27 07:06:23;;;;;;;7.70;6.00;;;;;;;-2.84;81.63;100205.75;84047;1291;20061387;-56
2023/11/27 07:09:10;;;;;;;9.70;6.10;;;;;;;-2.82;80.56;100205.62;105951;1291;74389;-57
2023/11/27 07:11:58;;;;;;;10.00;6.50;;;;;;;-2.83;81.38;100205.95;106008;1295;67475;-57
2023/11/27 07:14:44;;;;;;;9.70;6.70;;;;;;;-2.87;83.15;100207.69;105974;1293;72333;-58
2023/11/27 07:17:30;;;;;;;;;;;;;;;-2.88;81.99;100210.33;106018;1291;59640;-57
2023/11/27 07:20:19;;;;;;;7.50;5.60;;;;;;;-2.87;81.07;100208.36;106058;1291;59697;-58
2023/11/27 07:23:07;;;;;;;7.60;5.20;;;;;;;-2.86;81.71;100205.67;106029;1292;73366;-58
2023/11/27 07:25:54;;;;;;;6.90;4.80;;;;;;;-2.88;83.06;100203.24;105999;1291;67140;-57
2023/11/27 07:28:43;;;;;;;7.70;5.50;;;;;;;-2.87;81.17;100201.42;106016;1291;71189;-57
2023/11/27 07:31:31;;;;;;;8.90;5.40;;;;;;;-2.79;80.57;100203.35;106021;1293;59528;-57
2023/11/27 07:34:17;;;;;;;7.30;4.90;;;;;;;-2.73;80.96;100203.40;106027;1291;59034;-58
2023/11/27 07:37:03;;;;;;;6.20;4.70;;;;;;;-2.72;81.66;100202.92;106049;1291;73007;-57
2023/11/27 07:39:49;;;;;;;5.90;4.80;;;;;;;-2.68;80.82;100202.70;105979;1292;68532;-58
2023/11/27 07:42:36;;;;;;;8.60;5.20;;;;;;;-2.65;81.03;100205.64;105994;1291;72548;-58
2023/11/27 07:45:23;;;;;;;8.60;5.70;;;;;;;-2.61;80.32;100206.27;105990;1291;59149;-57
2023/11/27 07:48:08;;;;;;;;;;;;;;;-2.54;81.23;100209.48;106028;1292;58965;-57
2023/11/27 07:50:55;;;;;;;15.20;7.60;;;;;;;-2.58;81.28;100209.72;105989;1291;74905;-58
2023/11/27 07:53:41;;;;;;;27.00;11.80;;;;;;;-2.63;82.06;100212.46;106018;1291;67472;-58
2023/11/27 07:56:27;;;;;;;;;;;;;;;-2.64;81.43;100214.77;106090;1290;71199;-57
2023/11/27 07:59:14;;;;;;;8.60;6.70;;;;;;;-2.61;82.40;100216.23;106064;1291;59016;-57
2023/11/27 08:02:03;;;;;;;;;;;;;;;-2.62;81.91;100217.23;106119;1291;60012;-58
2023/11/27 08:04:49;;;;;;;8.80;5.20;;;;;;;-2.59;81.17;100217.28;106084;1291;74491;-57
2023/11/27 08:07:35;;;;;;;;;;;;;;;-2.59;81.11;100214.58;106089;1291;67191;-57
2023/11/27 08:10:21;;;;;;;9.20;6.20;;;;;;;-2.57;80.64;100212.78;106072;1291;72598;-57
2023/11/27 08:13:08;;;;;;;;;;;;;;;-2.57;80.72;100211.42;106119;1291;58948;-58
2023/11/27 08:15:57;;;;;;;9.00;6.90;;;;;;;-2.58;81.42;100212.41;106134;1291;59198;-58
2023/11/27 08:18:44;;;;;;;6.60;5.60;;;;;;;-2.58;82.08;100205.48;106093;1291;75518;-58
2023/11/27 08:21:31;;;;;;;13.00;8.30;;;;;;;-2.57;82.29;100207.70;106099;1291;68987;-56
2023/11/27 08:24:16;;;;;;;;;;;;;;;-2.55;81.83;100209.14;106091;1291;72373;-58
2023/11/27 08:27:04;;;;;;;12.80;7.30;;;;;;;-2.54;82.39;100204.75;106068;1291;59209;-57
2023/11/27 08:29:50;;;;;;;10.60;6.80;;;;;;;-2.48;81.06;100206.81;106086;1290;59433;-57
2023/11/27 08:32:36;;;;;;;9.90;7.30;;;;;;;-2.36;81.29;100203.46;106098;1291;73459;-57
2023/11/27 08:35:22;;;;;;;10.50;7.20;;;;;;;-2.34;82.45;100203.51;106077;1291;67502;-57
2023/11/27 08:38:09;;;;;;;10.50;8.20;;;;;;;-2.32;82.03;100198.52;106086;1292;71198;-57
2023/11/27 08:40:55;;;;;;;11.70;7.80;;;;;;;-2.27;81.07;100200.02;106097;1290;59777;-58
2023/11/27 08:43:41;;;;;;;14.20;9.40;;;;;;;-2.17;81.39;100200.46;106105;1291;60029;-57
2023/11/27 08:46:27;;;;;;;15.00;10.00;;;;;;;-2.14;80.96;100196.30;106089;1291;74492;-57
2023/11/27 08:49:14;;;;;;;14.40;8.80;;;;;;;-2.06;81.39;100195.84;106105;1291;67236;-58
2023/11/27 08:52:00;;;;;;;10.70;8.10;;;;;;;-2.01;80.96;100193.60;106052;1291;72593;-56
2023/11/27 08:54:46;;;;;;;15.00;9.20;;;;;;;-1.87;81.44;100191.80;106106;1290;59319;-58
2023/11/27 08:57:32;;;;;;;;;;;;;;;-1.65;81.11;100195.11;106017;1291;60182;-56
2023/11/27 09:00:18;;;;;;;16.70;9.70;;;;;;;-1.68;81.77;100193.02;106113;1291;73285;-57
2023/11/27 09:03:05;;;;;;;16.90;10.20;;;;;;;-1.72;81.22;100194.75;106099;1294;67168;-57
2023/11/27 09:05:51;;;;;;;14.30;9.80;;;;;;;-1.65;80.66;100198.83;106071;1291;71394;-57
2023/11/27 09:08:40;;;;;;;14.70;9.70;;;;;;;-1.59;80.60;100195.42;106096;1291;59038;-57
2023/11/27 09:11:27;;;;;;;13.60;9.40;;;;;;;-1.52;80.47;100193.39;106095;1292;59236;-58
2023/11/27 09:14:13;;;;;;;;;;;;;;;-1.40;80.55;100192.34;106126;1291;74913;-57
2023/11/27 09:16:59;;;;;;;15.90;10.40;;;;;;;-1.36;80.67;100191.43;106081;1291;69860;-57
2023/11/27 09:19:45;;;;;;;16.30;11.10;;;;;;;-1.33;80.82;100188.80;106093;1291;71983;-57
2023/11/27 09:22:32;;;;;;;;;;;;;;;-1.31;80.69;100185.48;106124;1291;59335;-57
2023/11/27 09:25:18;;;;;;;18.10;11.20;;;;;;;-1.29;81.27;100180.27;106120;1291;59112;-57
2023/11/27 09:28:05;;;;;;;17.40;11.00;;;;;;;-1.34;81.63;100179.83;106028;1291;73397;-56
2023/11/27 09:30:50;;;;;;;;;;;;;;;-1.23;80.91;100175.86;106117;1291;68132;-56
2023/11/27 09:33:37;;;;;;;11.50;7.30;;;;;;;-1.14;81.33;100165.43;106093;1291;71397;-57
2023/11/27 09:36:26;;;;;;;11.10;8.20;;;;;;;-1.09;81.71;100156.07;106068;1290;59321;-57
2023/11/27 09:39:12;;;;;;;10.20;8.00;;;;;;;-1.03;81.48;100155.19;106100;1291;59079;-57
2023/11/27 09:41:59;;;;;;;9.70;7.70;;;;;;;-0.87;80.95;100154.86;106094;1291;74518;-58
2023/11/27 09:44:45;;;;;;;10.30;8.00;;;;;;;-0.60;80.88;100149.38;106095;1291;67251;-58
2023/11/27 09:47:31;;;;;;;;;;;;;;;-0.19;80.93;100149.17;106103;1290;70960;-57
2023/11/27 09:50:19;;;;;;;10.50;7.30;;;;;;;0.46;81.23;100146.27;106099;1290;59305;-57
2023/11/27 09:53:08;;;;;;;8.70;7.00;;;;;;;1.05;79.10;100144.31;106076;1291;59747;-57
2023/11/27 09:55:56;;;;;;;10.70;8.90;;;;;;;1.28;79.17;100141.23;106084;1291;74274;-55
2023/11/27 09:58:42;;;;;;;8.60;7.50;;;;;;;1.53;80.23;100139.86;106096;1291;66457;-57
2023/11/27 10:01:29;;;;;;;8.20;7.30;;;;;;;3.20;81.74;100127.55;105978;1292;71322;-57
2023/11/27 10:04:15;;;;;;;8.30;7.30;;;;;;;4.53;80.89;100124.71;106100;1291;59205;-56
2023/11/27 10:07:01;;;;;;;7.50;6.80;;;;;;;5.67;80.74;100115.08;106102;1291;59040;-57
2023/11/27 10:09:51;;;;;;;8.00;6.80;;;;;;;6.40;79.76;100112.11;106110;1291;74318;-56
2023/11/27 10:12:38;;;;;;;6.70;6.20;;;;;;;7.03;81.78;100111.36;106094;1291;68538;-58
2023/11/27 10:15:27;;;;;;;9.80;7.40;;;;;;;7.83;74.18;100107.35;106089;1290;71370;-56
2023/11/27 10:18:17;;;;;;;11.50;10.10;;;;;;;7.87;75.20;100105.56;106083;1291;59767;-57
2023/11/27 10:21:14;;;;;;;20.40;11.90;;;;;;;8.56;79.20;100105.92;106060;1291;60175;-58
2023/11/27 10:24:01;;;;;;;16.70;9.20;;;;;;;10.27;81.94;100107.04;106070;1290;73353;-58
2023/11/27 10:26:47;;;;;;;28.50;13.60;;;;;;;11.38;81.21;100105.40;106114;1291;67947;-58
2023/11/27 10:29:33;;;;;;;65.60;16.50;;;;;;;12.52;82.07;100102.48;106079;1291;70632;-58
2023/11/27 10:32:25;;;;;;;108.90;21.80;;;;;;;13.56;82.02;100095.95;106094;1292;59043;-57
2023/11/27 10:35:12;;;;;;;71.70;19.00;;;;;;;14.49;82.39;100093.38;106115;1291;59352;-60
2023/11/27 10:37:59;;;;;;;93.20;22.60;;;;;;;14.45;77.47;100089.73;106084;1291;74455;-61
2023/11/27 10:40:45;;;;;;;132.40;37.60;;;;;;;14.83;80.20;100091.14;106098;1291;67244;-57
2023/11/27 10:43:34;;;;;;;99.70;35.10;;;;;;;14.74;81.19;100090.31;106082;1291;73112;-58
2023/11/27 10:46:20;;;;;;;156.50;36.60;;;;;;;14.58;81.20;100093.36;106112;1291;59329;-58
2023/11/27 10:49:07;;;;;;;165.10;43.10;;;;;;;14.78;81.10;100088.20;106090;1290;59868;-59
2023/11/27 10:51:54;;;;;;;164.70;39.10;;;;;;;14.83;80.13;100088.35;106034;1291;74193;-58
2023/11/27 10:54:41;;;;;;;150.60;39.00;;;;;;;14.56;80.14;100084.27;106028;1290;67242;-57
2023/11/27 10:57:29;;;;;;;125.40;36.40;;;;;;;14.06;80.17;100082.98;106092;1291;71383;-58
2023/11/27 11:03:40;;;;;;;74.90;28.50;;;;;;;13.20;78.47;100085.30;105792;1290;59072;-57
2023/11/27 11:06:27;;;;;;;39.50;23.40;;;;;;;12.09;77.53;100082.08;106203;1289;73361;-58
2023/11/27 11:09:16;;;;;;;38.50;22.80;;;;;;;10.89;77.68;100076.05;106195;1288;67167;-57
2023/11/27 11:12:06;;;;;;;31.40;20.30;;;;;;;10.30;77.42;100077.02;106073;1288;70091;-56
2023/11/27 11:14:55;;;;;;;25.10;20.00;;;;;;;10.02;77.44;100072.45;106164;1293;59087;-57
2023/11/27 11:17:54;;;;;;;33.30;21.20;;;;;;;10.16;78.64;100071.80;106248;1289;59650;-58
2023/11/27 11:21:05;;;;;;;29.50;22.10;;;;;;;10.29;78.28;100064.79;106222;1288;74390;-58
2023/11/27 11:24:03;;;;;;;39.20;26.70;;;;;;;10.68;76.24;100059.16;106187;1288;66341;-58
2023/11/27 11:27:07;;;;;;;58.30;28.30;;;;;;;11.09;76.62;100051.17;106196;1289;72529;-57
2023/11/27 11:29:57;;;;;;;36.50;25.20;;;;;;;11.73;76.84;100047.95;106200;1288;59704;-58
2023/11/27 11:32:44;;;;;;;63.90;30.80;;;;;;;12.04;75.36;100048.20;106224;1289;60246;-57
2023/11/27 11:35:33;;;;;;;58.10;28.60;;;;;;;12.19;75.78;100051.02;106190;1288;74562;-58
2023/11/27 11:38:21;;;;;;;100.40;32.40;;;;;;;12.77;75.79;100050.98;106191;1288;67544;-58
2023/11/27 11:41:09;;;;;;;102.10;31.80;;;;;;;13.13;75.37;100053.89;106238;1288;71284;-58
2023/11/27 11:43:57;;;;;;;60.60;29.30;;;;;;;13.04;73.71;100060.77;106190;1288;59259;-58
2023/11/27 11:46:47;;;;;;;85.40;34.40;;;;;;;12.54;69.70;100069.76;106220;1290;60113;-58
2023/11/27 11:49:33;;;;;;;90.70;36.20;;;;;;;12.01;70.73;100068.02;106116;1288;74528;-58
2023/11/27 11:52:19;;;;;;;119.00;35.30;;;;;;;11.84;71.77;100063.70;106229;1288;66336;-58
2023/11/27 11:55:13;;;;;;;53.80;28.50;;;;;;;11.61;69.76;100066.27;106170;1288;71497;-57
2023/11/27 11:58:06;;;;;;;43.60;25.10;;;;;;;11.19;70.18;100062.48;106186;1289;59255;-58
2023/11/27 12:01:01;;;;;;;38.70;23.90;;;;;;;10.76;68.83;100066.73;106200;1289;59058;-57
2023/11/27 12:03:50;;;;;;;39.50;20.90;;;;;;;9.93;64.42;100063.37;106221;1289;73927;-57
2023/11/27 12:06:40;;;;;;;16.50;12.40;;;;;;;9.19;63.14;100061.13;106117;1288;67579;-57
2023/11/27 12:09:26;;;;;;;13.70;11.60;;;;;;;8.64;65.93;100064.75;106181;1288;71137;-57
2023/11/27 12:12:15;;;;;;;17.40;13.50;;;;;;;8.24;62.56;100061.27;105704;1296;59618;-58
2023/11/27 12:15:05;;;;;;;12.50;11.30;;;;;;;8.05;61.57;100059.50;106217;1288;59031;-57
2023/11/27 12:17:52;;;;;;;15.50;12.70;;;;;;;7.48;63.65;100065.09;106220;1288;74543;-57
2023/11/27 12:20:42;;;;;;;11.80;10.60;;;;;;;6.37;62.03;100062.96;106171;1292;67474;-57
2023/11/27 12:23:28;;;;;;;15.70;13.70;;;;;;;5.19;63.96;100061.42;106219;1288;71204;-58
2023/11/27 12:26:22;;;;;;;16.70;13.90;;;;;;;4.55;64.93;100061.58;106192;1289;59444;-57
2023/11/27 12:29:08;;;;;;;23.10;15.70;;;;;;;4.37;66.33;100054.59;106245;1289;59826;-57
2023/11/27 12:31:55;;;;;;;20.60;16.30;;;;;;;4.52;64.96;100052.19;106246;1288;73396;-57
2023/11/27 12:34:42;;;;;;;14.20;12.20;;;;;;;5.01;65.11;100048.01;106206;1288;69965;-56
2023/11/27 12:37:28;;;;;;;16.00;12.50;;;;;;;5.19;62.96;100041.95;106205;1288;71184;-57
2023/11/27 12:40:17;;;;;;;;;;;;;;;5.16;63.48;100030.17;106226;1288;59709;-57
2023/11/27 12:43:05;;;;;;;15.90;12.70;;;;;;;5.19;62.82;100025.89;106247;1289;58886;-57
2023/11/27 12:45:57;;;;;;;14.20;11.50;;;;;;;4.98;62.79;100027.51;106146;1289;73225;-56
2023/11/27 12:48:44;;;;;;;17.20;14.00;;;;;;;4.97;62.89;100029.05;106116;1289;67388;-57
2023/11/27 12:51:32;;;;;;;17.80;14.70;;;;;;;4.58;62.93;100029.14;106183;1289;71375;-56
2023/11/27 12:54:21;;;;;;;20.60;16.40;;;;;;;4.55;63.60;100028.64;106203;1288;59261;-56
2023/11/27 12:57:10;;;;;;;24.30;16.90;;;;;;;3.64;63.76;100022.64;106109;1292;59729;-56
2023/11/27 12:59:56;;;;;;;24.90;19.10;;;;;;;3.42;64.65;100019.69;106042;1291;101192;-57